Time;durP1;ratioP1;P1;durP2;ratioP2;P2;SDS_P1;SDS_P2;PMS_P1;PMS_P2;Temp;Humidity;BMP_temperature;BMP_pressure;BME280_temperature;BME280_humidity;BME280_pressure;Samples;Min_cycle;Max_cycle;Signal;HPM_P1;HPM_P2
2023/10/01 00:00:36;;;;;;;7.28;2.88;;;;;;;;;;5054716;28;20021;-71
2023/10/01 00:03:06;;;;;;;9.88;3.38;;;;;;;;;;5054779;28;20032;-71
2023/10/01 00:05:31;;;;;;;7.18;2.95;;;;;;;;;;5054951;28;20043;-71
2023/10/01 00:07:56;;;;;;;8.85;2.85;;;;;;;;;;5054991;28;20021;-71
2023/10/01 00:10:22;;;;;;;6.53;2.70;;;;;;;;;;5054450;28;20045;-71
2023/10/01 00:12:49;;;;;;;7.85;2.88;;;;;;;;;;5053334;28;20694;-71
2023/10/01 00:15:21;;;;;;;6.97;2.97;;;;;;;;;;5054751;28;20032;-72
2023/10/01 00:17:48;;;;;;;7.13;3.03;;;;;;;;;;5054822;28;20032;-72
2023/10/01 00:20:18;;;;;;;11.00;3.00;;;;;;;;;;5054438;28;20070;-72
2023/10/01 00:22:51;;;;;;;7.22;3.20;;;;;;;;;;5054393;28;20025;-71
2023/10/01 00:25:22;;;;;;;10.02;3.22;;;;;;;;;;5053767;28;20474;-71
2023/10/01 00:27:47;;;;;;;6.70;2.80;;;;;;;;;;5053153;28;20032;-71
2023/10/01 00:30:12;;;;;;;10.43;2.80;;;;;;;;;;5053136;28;20028;-72
2023/10/01 00:32:38;;;;;;;15.43;3.50;;;;;;;;;;5054197;28;20040;-71
2023/10/01 00:35:06;;;;;;;8.50;2.55;;;;;;;;;;5054226;28;20029;-71
2023/10/01 00:37:33;;;;;;;7.78;3.05;;;;;;;;;;5054135;28;20021;-71
2023/10/01 00:39:59;;;;;;;8.90;2.88;;;;;;;;;;5054016;28;20064;-72
2023/10/01 00:42:28;;;;;;;11.60;3.35;;;;;;;;;;5054575;28;20098;-71
2023/10/01 00:44:54;;;;;;;7.40;2.90;;;;;;;;;;5054040;28;20154;-71
2023/10/01 00:47:21;;;;;;;6.40;2.70;;;;;;;;;;5054028;28;20078;-71
2023/10/01 00:49:47;;;;;;;10.07;2.88;;;;;;;;;;5053815;28;20407;-71
2023/10/01 00:52:14;;;;;;;7.38;3.20;;;;;;;;;;5053794;28;20025;-72
2023/10/01 00:54:39;;;;;;;9.85;3.58;;;;;;;;;;5053855;28;20033;-71
2023/10/01 00:57:04;;;;;;;8.32;2.83;;;;;;;;;;5052510;28;20023;-71
2023/10/01 00:59:32;;;;;;;10.30;3.17;;;;;;;;;;5053629;28;20016;-71
2023/10/01 01:01:59;;;;;;;12.65;3.17;;;;;;;;;;5052430;28;20452;-71
2023/10/01 01:04:27;;;;;;;7.63;2.67;;;;;;;;;;5052352;28;20029;-71
2023/10/01 01:06:52;;;;;;;8.40;2.70;;;;;;;;;;5053553;28;20025;-71
2023/10/01 01:09:20;;;;;;;5.85;2.88;;;;;;;;;;5053841;28;20023;-71
2023/10/01 01:11:50;;;;;;;7.55;3.10;;;;;;;;;;5052401;28;20434;-71
2023/10/01 01:14:16;;;;;;;8.00;3.30;;;;;;;;;;5052431;28;20039;-72
2023/10/01 01:16:41;;;;;;;7.15;2.97;;;;;;;;;;5052355;28;20399;-71
2023/10/01 01:19:09;;;;;;;9.32;2.95;;;;;;;;;;5053420;28;20059;-72
2023/10/01 01:21:34;;;;;;;9.38;3.40;;;;;;;;;;5053335;28;20032;-71
2023/10/01 01:23:59;;;;;;;7.00;2.92;;;;;;;;;;5053542;28;20025;-71
2023/10/01 01:26:25;;;;;;;8.00;2.90;;;;;;;;;;5053291;28;20021;-72
2023/10/01 01:28:50;;;;;;;9.30;3.17;;;;;;;;;;5053429;28;20361;-72
2023/10/01 01:31:16;;;;;;;9.02;2.90;;;;;;;;;;5053048;28;20024;-70
2023/10/01 01:33:44;;;;;;;9.48;3.70;;;;;;;;;;5053087;28;20036;-71
2023/10/01 01:36:12;;;;;;;10.07;2.75;;;;;;;;;;5053082;28;20107;-71
2023/10/01 01:38:53;;;;;;;6.60;3.03;;;;;;;;;;5051733;28;20107;-72
2023/10/01 01:41:19;;;;;;;6.60;2.72;;;;;;;;;;5052777;28;20052;-72
2023/10/01 01:43:46;;;;;;;9.48;3.13;;;;;;;;;;5051673;28;20056;-72
2023/10/01 01:46:12;;;;;;;5.47;2.63;;;;;;;;;;5050208;28;20029;-72
2023/10/01 01:48:40;;;;;;;5.72;2.53;;;;;;;;;;5051444;28;20503;-72
2023/10/01 01:51:06;;;;;;;7.40;2.78;;;;;;;;;;5051693;28;20025;-72
2023/10/01 01:53:35;;;;;;;8.77;2.80;;;;;;;;;;5052497;28;20059;-71
2023/10/01 01:56:08;;;;;;;7.55;2.75;;;;;;;;;;5051903;28;20578;-72
2023/10/01 01:58:35;;;;;;;8.57;2.90;;;;;;;;;;5051621;28;20048;-71
2023/10/01 02:03:57;;;;;;;9.02;2.90;;;;;;;;;;5052220;28;20055;-71
2023/10/01 02:06:28;;;;;;;8.88;2.78;;;;;;;;;;5052757;28;20033;-71
2023/10/01 02:08:57;;;;;;;6.68;2.60;;;;;;;;;;5052817;28;20017;-72
2023/10/01 02:11:22;;;;;;;6.63;2.72;;;;;;;;;;5052641;28;20087;-71
2023/10/01 02:13:51;;;;;;;9.55;2.83;;;;;;;;;;5052696;28;20028;-71
2023/10/01 02:19:11;;;;;;;8.95;3.20;;;;;;;;;;5053048;28;20430;-71
2023/10/01 02:24:38;;;;;;;9.90;2.97;;;;;;;;;;5051911;28;20036;-71
2023/10/01 02:27:04;;;;;;;5.70;2.83;;;;;;;;;;5051221;28;20033;-71
2023/10/01 02:29:32;;;;;;;8.93;3.00;;;;;;;;;;5052637;28;20027;-71
2023/10/01 02:32:04;;;;;;;6.85;2.65;;;;;;;;;;5051158;28;20025;-72
2023/10/01 02:34:29;;;;;;;8.23;2.55;;;;;;;;;;5052741;28;20104;-71
2023/10/01 02:36:55;;;;;;;8.07;2.80;;;;;;;;;;5052418;28;20100;-71
2023/10/01 02:39:27;;;;;;;9.75;2.97;;;;;;;;;;5052323;28;20029;-71
2023/10/01 02:44:47;;;;;;;10.93;3.08;;;;;;;;;;5052785;28;20412;-71
2023/10/01 02:47:20;;;;;;;7.40;2.60;;;;;;;;;;5050979;28;20039;-71
2023/10/01 02:49:50;;;;;;;6.20;2.80;;;;;;;;;;5052480;28;20484;-71
2023/10/01 02:52:32;;;;;;;12.20;2.83;;;;;;;;;;5051012;28;20052;-71
2023/10/01 02:55:00;;;;;;;7.65;2.80;;;;;;;;;;5055775;28;20028;-71
2023/10/01 02:57:26;;;;;;;8.95;3.15;;;;;;;;;;5056010;28;20108;-72
2023/10/01 03:02:38;;;;;;;14.20;3.10;;;;;;;;;;5055852;28;20071;-71
2023/10/01 03:05:08;;;;;;;11.25;3.05;;;;;;;;;;5056165;28;20025;-71
2023/10/01 03:07:40;;;;;;;7.70;3.03;;;;;;;;;;5055800;28;20429;-71
2023/10/01 03:10:16;;;;;;;5.68;2.67;;;;;;;;;;5054687;28;20037;-71
2023/10/01 03:12:49;;;;;;;8.52;3.55;;;;;;;;;;5055716;28;20029;-71
2023/10/01 03:17:51;;;;;;;6.70;2.83;;;;;;;;;;5055972;28;20472;-71
2023/10/01 03:20:57;;;;;;;6.80;2.50;;;;;;;;;;5055831;28;20028;-71
2023/10/01 03:23:24;;;;;;;9.30;2.53;;;;;;;;;;5056057;28;20037;-71
2023/10/01 03:25:59;;;;;;;10.32;3.60;;;;;;;;;;5055810;28;20106;-71
2023/10/01 03:28:32;;;;;;;8.45;2.85;;;;;;;;;;5056123;28;20055;-71
2023/10/01 03:31:06;;;;;;;7.25;2.65;;;;;;;;;;5054066;28;20021;-72
2023/10/01 03:33:39;;;;;;;9.40;3.10;;;;;;;;;;5055835;28;20028;-71
2023/10/01 03:36:09;;;;;;;7.90;2.50;;;;;;;;;;5055359;28;20025;-71
2023/10/01 03:38:36;;;;;;;10.27;2.70;;;;;;;;;;5054182;28;20063;-71
2023/10/01 03:41:08;;;;;;;7.53;2.90;;;;;;;;;;5053999;28;20025;-71
2023/10/01 03:43:34;;;;;;;6.35;2.75;;;;;;;;;;5055198;28;20545;-71
2023/10/01 03:46:13;;;;;;;11.68;2.85;;;;;;;;;;5053932;28;20032;-72
2023/10/01 03:48:59;;;;;;;7.00;2.70;;;;;;;;;;5055400;28;20098;-71
2023/10/01 03:51:29;;;;;;;11.02;2.65;;;;;;;;;;5055280;28;20025;-71
2023/10/01 03:54:06;;;;;;;8.32;2.75;;;;;;;;;;5055352;28;20138;-71
2023/10/01 03:56:36;;;;;;;8.90;2.85;;;;;;;;;;5055058;28;20075;-71
2023/10/01 03:59:02;;;;;;;5.75;2.55;;;;;;;;;;5053632;28;20112;-71
2023/10/01 04:01:33;;;;;;;8.25;2.70;;;;;;;;;;5055034;28;20109;-71
2023/10/01 04:04:01;;;;;;;10.02;2.75;;;;;;;;;;5054812;28;20112;-70
2023/10/01 04:06:29;;;;;;;8.50;2.70;;;;;;;;;;5054684;28;20017;-71
2023/10/01 04:08:55;;;;;;;8.35;2.88;;;;;;;;;;5054850;28;20487;-71
2023/10/01 04:11:41;;;;;;;10.25;2.75;;;;;;;;;;5053233;28;20029;-72
2023/10/01 04:14:10;;;;;;;5.78;2.67;;;;;;;;;;5054678;28;20032;-71
2023/10/01 04:16:40;;;;;;;8.18;2.78;;;;;;;;;;5053593;28;20396;-72
2023/10/01 04:19:11;;;;;;;9.75;2.70;;;;;;;;;;5054571;28;20104;-71
2023/10/01 04:21:36;;;;;;;6.72;2.70;;;;;;;;;;5054647;28;20151;-71
2023/10/01 04:24:02;;;;;;;5.03;2.23;;;;;;;;;;5054289;28;20058;-71
2023/10/01 04:26:30;;;;;;;8.63;2.70;;;;;;;;;;5054284;28;20258;-71
2023/10/01 04:28:59;;;;;;;4.80;2.50;;;;;;;;;;5054419;28;20021;-71
2023/10/01 04:31:48;;;;;;;6.93;2.55;;;;;;;;;;5052820;28;20025;-71
2023/10/01 04:34:14;;;;;;;8.48;2.63;;;;;;;;;;5054413;28;20028;-71
2023/10/01 04:36:42;;;;;;;6.07;2.50;;;;;;;;;;5054333;28;20115;-71
2023/10/01 04:39:08;;;;;;;6.80;2.60;;;;;;;;;;5053941;28;20036;-71
2023/10/01 04:41:34;;;;;;;6.45;2.60;;;;;;;;;;5052736;28;20017;-71
2023/10/01 04:44:06;;;;;;;14.38;2.53;;;;;;;;;;5053916;28;20025;-71
2023/10/01 04:46:36;;;;;;;5.85;2.70;;;;;;;;;;5052603;28;20024;-72
2023/10/01 04:49:47;;;;;;;8.80;3.17;;;;;;;;;;5054194;28;20434;-71
2023/10/01 04:51:55;;;;;;;9.80;2.95;;;;;;;;;;5053234;28;20069;-71
2023/10/01 04:54:21;;;;;;;5.50;2.42;;;;;;;;;;5053741;28;20035;-71
2023/10/01 04:56:48;;;;;;;5.35;2.50;;;;;;;;;;5054061;28;20021;-72
2023/10/01 04:59:18;;;;;;;7.75;2.55;;;;;;;;;;5053591;28;20028;-71
2023/10/01 05:01:44;;;;;;;7.60;2.67;;;;;;;;;;5053611;28;20476;-71
2023/10/01 05:04:12;;;;;;;6.30;2.25;;;;;;;;;;5052338;28;20120;-71
2023/10/01 05:06:42;;;;;;;5.20;2.17;;;;;;;;;;5053508;28;20024;-71
2023/10/01 05:09:08;;;;;;;6.72;2.78;;;;;;;;;;5052170;28;20025;-72
2023/10/01 05:11:33;;;;;;;4.43;2.30;;;;;;;;;;5053462;28;20442;-71
2023/10/01 05:13:59;;;;;;;5.72;2.47;;;;;;;;;;5053426;28;20434;-71
2023/10/01 05:16:27;;;;;;;6.13;2.55;;;;;;;;;;5051542;28;20033;-72
2023/10/01 05:19:09;;;;;;;6.57;2.38;;;;;;;;;;5053635;28;20032;-72
2023/10/01 05:21:46;;;;;;;9.30;2.65;;;;;;;;;;5053634;28;20024;-72
2023/10/01 05:24:15;;;;;;;6.78;2.83;;;;;;;;;;5053561;28;20472;-71
2023/10/01 05:26:43;;;;;;;8.07;2.60;;;;;;;;;;5053205;28;20100;-72
2023/10/01 05:29:09;;;;;;;6.10;2.90;;;;;;;;;;5053047;28;20082;-71
2023/10/01 05:31:35;;;;;;;8.40;2.75;;;;;;;;;;5053028;28;20021;-72
2023/10/01 05:34:00;;;;;;;9.02;2.55;;;;;;;;;;5053181;28;20017;-71
2023/10/01 05:36:26;;;;;;;6.38;2.67;;;;;;;;;;5053070;28;20499;-71
2023/10/01 05:38:53;;;;;;;7.32;2.72;;;;;;;;;;5051879;28;20025;-71
2023/10/01 05:41:29;;;;;;;5.32;2.78;;;;;;;;;;5052989;28;20027;-71
2023/10/01 05:44:01;;;;;;;6.57;2.85;;;;;;;;;;5053023;28;20503;-72
2023/10/01 05:46:27;;;;;;;9.77;2.63;;;;;;;;;;5053338;28;20033;-71
2023/10/01 05:48:55;;;;;;;5.88;2.63;;;;;;;;;;5052902;28;20074;-71
2023/10/01 05:51:30;;;;;;;12.45;2.70;;;;;;;;;;5052767;28;20025;-71
2023/10/01 05:53:56;;;;;;;6.82;2.65;;;;;;;;;;5052934;28;20086;-71
2023/10/01 05:56:22;;;;;;;5.15;2.35;;;;;;;;;;5052721;28;20028;-72
2023/10/01 05:58:48;;;;;;;6.75;2.78;;;;;;;;;;5052803;28;20028;-73
2023/10/01 06:01:14;;;;;;;10.00;2.90;;;;;;;;;;5052758;28;20029;-72
2023/10/01 06:03:40;;;;;;;6.20;2.63;;;;;;;;;;5051477;28;20072;-71
2023/10/01 06:06:10;;;;;;;6.32;2.53;;;;;;;;;;5052726;28;20071;-71
2023/10/01 06:08:45;;;;;;;9.30;2.67;;;;;;;;;;5052186;28;20025;-71
2023/10/01 06:11:15;;;;;;;6.85;2.20;;;;;;;;;;5052548;28;20443;-72
2023/10/01 06:13:49;;;;;;;8.10;2.35;;;;;;;;;;5052968;28;20025;-71
2023/10/01 06:16:16;;;;;;;5.22;2.40;;;;;;;;;;5052752;28;20044;-71
2023/10/01 06:18:42;;;;;;;8.85;2.67;;;;;;;;;;5052628;28;20036;-72
2023/10/01 06:21:11;;;;;;;7.00;3.10;;;;;;;;;;5052593;28;20028;-72
2023/10/01 06:23:51;;;;;;;5.13;2.30;;;;;;;;;;5051304;28;20044;-71
2023/10/01 06:26:22;;;;;;;5.72;2.70;;;;;;;;;;5051359;28;20108;-71
2023/10/01 06:28:48;;;;;;;6.57;2.47;;;;;;;;;;5055678;28;20025;-71
2023/10/01 06:31:16;;;;;;;7.20;2.70;;;;;;;;;;5055100;28;20035;-71
2023/10/01 06:33:42;;;;;;;5.03;2.30;;;;;;;;;;5055107;28;20053;-72
2023/10/01 06:36:19;;;;;;;6.00;2.28;;;;;;;;;;5055395;28;20052;-71
2023/10/01 06:38:47;;;;;;;5.53;2.60;;;;;;;;;;5056699;28;20021;-71
2023/10/01 06:41:16;;;;;;;6.93;2.33;;;;;;;;;;5056267;28;20060;-71
2023/10/01 06:43:49;;;;;;;8.63;2.65;;;;;;;;;;5054925;28;20078;-72
2023/10/01 06:46:16;;;;;;;5.10;2.50;;;;;;;;;;5056625;28;20501;-71
2023/10/01 06:48:42;;;;;;;4.82;2.28;;;;;;;;;;5056515;28;20083;-72
2023/10/01 06:51:08;;;;;;;5.75;2.53;;;;;;;;;;5055845;28;20487;-71
2023/10/01 06:53:45;;;;;;;7.75;2.50;;;;;;;;;;5054717;28;20028;-72
2023/10/01 06:56:15;;;;;;;6.45;2.40;;;;;;;;;;5056528;28;20055;-71
2023/10/01 06:58:41;;;;;;;5.40;2.50;;;;;;;;;;5055901;28;20032;-71
2023/10/01 07:01:33;;;;;;;5.72;2.47;;;;;;;;;;5054493;28;20024;-71
2023/10/01 07:03:51;;;;;;;8.13;2.50;;;;;;;;;;5055715;28;20033;-71
2023/10/01 07:06:16;;;;;;;8.67;2.90;;;;;;;;;;5055772;28;20037;-71
2023/10/01 07:08:43;;;;;;;6.67;2.60;;;;;;;;;;5055831;28;20254;-71
2023/10/01 07:11:18;;;;;;;6.22;2.50;;;;;;;;;;5054339;28;20661;-71
2023/10/01 07:13:43;;;;;;;6.53;2.40;;;;;;;;;;5056282;28;20388;-72
2023/10/01 07:16:09;;;;;;;7.20;2.92;;;;;;;;;;5055679;28;20486;-71
2023/10/01 07:18:37;;;;;;;7.43;2.72;;;;;;;;;;5056096;28;20036;-72
2023/10/01 07:21:11;;;;;;;5.05;2.25;;;;;;;;;;5055919;28;20047;-71
2023/10/01 07:23:37;;;;;;;6.55;2.50;;;;;;;;;;5055532;28;20025;-71
2023/10/01 07:26:03;;;;;;;6.47;2.72;;;;;;;;;;5055795;28;20107;-72
2023/10/01 07:28:30;;;;;;;6.35;2.30;;;;;;;;;;5055507;28;20083;-73
2023/10/01 07:31:01;;;;;;;11.80;2.80;;;;;;;;;;5055369;28;20025;-71
2023/10/01 07:33:28;;;;;;;9.98;3.00;;;;;;;;;;5055671;28;20025;-71
2023/10/01 07:35:59;;;;;;;6.28;2.50;;;;;;;;;;5054357;28;20033;-72
2023/10/01 07:38:26;;;;;;;5.78;2.65;;;;;;;;;;5055979;28;20096;-72
2023/10/01 07:40:57;;;;;;;6.85;2.88;;;;;;;;;;5053492;28;20460;-72
2023/10/01 07:43:26;;;;;;;8.05;2.25;;;;;;;;;;5056160;28;20043;-72
2023/10/01 07:45:59;;;;;;;7.68;2.45;;;;;;;;;;5055424;28;20087;-71
2023/10/01 07:48:27;;;;;;;6.32;2.60;;;;;;;;;;5053983;28;20028;-72
2023/10/01 07:50:56;;;;;;;10.85;2.80;;;;;;;;;;5054790;28;20052;-71
2023/10/01 07:53:32;;;;;;;5.95;2.20;;;;;;;;;;5055424;28;20525;-71
2023/10/01 07:55:59;;;;;;;5.65;2.10;;;;;;;;;;5053708;28;20126;-71
2023/10/01 07:58:25;;;;;;;5.50;2.22;;;;;;;;;;5053648;28;20025;-71
2023/10/01 08:01:36;;;;;;;7.82;2.35;;;;;;;;;;5054867;28;20066;-71
2023/10/01 08:03:55;;;;;;;12.65;2.38;;;;;;;;;;5054738;28;20021;-71
2023/10/01 08:06:30;;;;;;;8.73;2.53;;;;;;;;;;5055442;28;20036;-71
2023/10/01 08:09:00;;;;;;;5.10;2.25;;;;;;;;;;5054958;28;20032;-72
2023/10/01 08:14:10;;;;;;;5.50;2.40;;;;;;;;;;5054934;28;20086;-71
2023/10/01 08:16:48;;;;;;;7.28;2.17;;;;;;;;;;5054432;28;20403;-71
2023/10/01 08:19:20;;;;;;;6.85;2.42;;;;;;;;;;5054621;28;20107;-71
2023/10/01 08:21:54;;;;;;;6.85;2.35;;;;;;;;;;5054465;28;20021;-71
2023/10/01 08:24:20;;;;;;;6.43;2.55;;;;;;;;;;5054697;28;20017;-71
2023/10/01 08:26:57;;;;;;;8.73;2.42;;;;;;;;;;5053209;28;20032;-71
2023/10/01 08:32:11;;;;;;;5.22;2.13;;;;;;;;;;5054164;28;20074;-71
2023/10/01 08:37:31;;;;;;;6.25;2.00;;;;;;;;;;5054681;28;20028;-71
2023/10/01 08:39:56;;;;;;;7.43;2.35;;;;;;;;;;5052807;28;20024;-71
2023/10/01 08:42:28;;;;;;;6.85;2.40;;;;;;;;;;5054308;28;20063;-71
2023/10/01 08:45:02;;;;;;;7.22;2.40;;;;;;;;;;5054307;28;20112;-71
2023/10/01 08:49:56;;;;;;;6.70;2.10;;;;;;;;;;5053885;28;20488;-71
2023/10/01 08:52:30;;;;;;;6.85;2.33;;;;;;;;;;5051682;28;20032;-71
2023/10/01 08:54:56;;;;;;;;;;;;;;;;;;5054809;28;20032;-71
2023/10/01 08:57:36;;;;;;;3.88;2.03;;;;;;;;;;5053831;28;19908;-71
2023/10/01 09:00:17;;;;;;;5.80;2.17;;;;;;;;;;5053632;28;20028;-71
2023/10/01 09:02:48;;;;;;;6.05;2.22;;;;;;;;;;5053957;28;20127;-71
2023/10/01 09:05:23;;;;;;;6.32;1.80;;;;;;;;;;5053783;28;20025;-71
2023/10/01 09:07:50;;;;;;;5.05;2.08;;;;;;;;;;5052183;28;20554;-71
2023/10/01 09:10:18;;;;;;;5.40;2.00;;;;;;;;;;5053280;28;20128;-71
2023/10/01 09:12:47;;;;;;;6.95;2.47;;;;;;;;;;5052185;28;20063;-71
2023/10/01 09:15:29;;;;;;;6.95;2.45;;;;;;;;;;5053388;28;20432;-71
2023/10/01 09:17:57;;;;;;;5.05;2.10;;;;;;;;;;5053402;28;20033;-71
2023/10/01 09:20:37;;;;;;;6.10;2.60;;;;;;;;;;5053891;28;20032;-71
2023/10/01 09:23:02;;;;;;;7.53;1.90;;;;;;;;;;5053423;28;20025;-71
2023/10/01 09:25:30;;;;;;;5.72;1.88;;;;;;;;;;5051966;28;20403;-71
2023/10/01 09:27:57;;;;;;;6.32;2.58;;;;;;;;;;5051941;28;20039;-71
2023/10/01 09:30:27;;;;;;;4.78;1.95;;;;;;;;;;5053059;28;20147;-73
2023/10/01 09:32:54;;;;;;;5.55;1.70;;;;;;;;;;5053168;28;20095;-71
2023/10/01 09:35:30;;;;;;;6.82;1.98;;;;;;;;;;5051744;28;20033;-71
2023/10/01 09:38:13;;;;;;;4.85;1.88;;;;;;;;;;5053087;28;20021;-71
2023/10/01 09:40:41;;;;;;;4.05;1.70;;;;;;;;;;5051668;28;20021;-72
2023/10/01 09:43:18;;;;;;;4.68;1.67;;;;;;;;;;5052954;28;20063;-71
2023/10/01 09:45:46;;;;;;;3.90;1.73;;;;;;;;;;5053220;28;20112;-71
2023/10/01 09:48:23;;;;;;;5.38;1.90;;;;;;;;;;5053185;28;20100;-71
2023/10/01 09:50:54;;;;;;;4.63;1.75;;;;;;;;;;5052742;28;20107;-71
2023/10/01 09:53:24;;;;;;;6.25;2.20;;;;;;;;;;5052825;28;20037;-71
2023/10/01 09:55:56;;;;;;;7.65;2.25;;;;;;;;;;5051724;28;20020;-71
2023/10/01 09:58:26;;;;;;;4.10;1.95;;;;;;;;;;5052691;28;20053;-71
2023/10/01 10:00:54;;;;;;;6.63;2.45;;;;;;;;;;5052632;28;20096;-71
2023/10/01 10:03:19;;;;;;;4.03;1.90;;;;;;;;;;5052656;28;20040;-71
2023/10/01 10:05:46;;;;;;;7.43;2.50;;;;;;;;;;5052880;28;20032;-71
2023/10/01 10:08:16;;;;;;;4.38;2.10;;;;;;;;;;5052668;28;20032;-71
2023/10/01 10:10:50;;;;;;;6.88;2.25;;;;;;;;;;5052579;28;20523;-71
2023/10/01 10:13:37;;;;;;;7.90;2.30;;;;;;;;;;5053059;28;20433;-71
2023/10/01 10:19:05;;;;;;;8.90;2.70;;;;;;;;;;5053127;28;20086;-71
2023/10/01 10:24:30;;;;;;;4.68;2.20;;;;;;;;;;5052856;28;20029;-71
2023/10/01 10:26:59;;;;;;;7.60;2.42;;;;;;;;;;5052372;28;20104;-71
2023/10/01 10:29:57;;;;;;;5.55;2.00;;;;;;;;;;5052553;28;20098;-71
2023/10/01 10:32:27;;;;;;;7.50;2.30;;;;;;;;;;5052478;28;20040;-71
2023/10/01 10:35:04;;;;;;;5.72;2.00;;;;;;;;;;5052541;28;20028;-71
2023/10/01 10:37:53;;;;;;;5.55;2.10;;;;;;;;;;5051409;28;20028;-71
2023/10/01 10:42:57;;;;;;;4.47;2.20;;;;;;;;;;5052728;28;20045;-71
2023/10/01 10:45:46;;;;;;;5.38;2.00;;;;;;;;;;5051088;28;20572;-71
2023/10/01 10:48:21;;;;;;;5.22;2.30;;;;;;;;;;5052184;28;20120;-71
2023/10/01 10:50:53;;;;;;;5.10;1.73;;;;;;;;;;5052145;28;20029;-71
2023/10/01 10:53:27;;;;;;;5.32;2.03;;;;;;;;;;5051124;28;20409;-71
2023/10/01 10:56:05;;;;;;;6.82;2.42;;;;;;;;;;5052519;28;20060;-71
2023/10/01 10:58:37;;;;;;;4.97;2.03;;;;;;;;;;5052463;28;20021;-71
2023/10/01 11:01:15;;;;;;;4.47;2.05;;;;;;;;;;5052237;28;20029;-71
2023/10/01 11:03:47;;;;;;;3.72;2.10;;;;;;;;;;5051055;28;20051;-71
2023/10/01 11:06:20;;;;;;;4.22;2.15;;;;;;;;;;5052435;28;20100;-71
2023/10/01 11:08:51;;;;;;;5.77;1.93;;;;;;;;;;5052211;28;20025;-71
2023/10/01 11:11:39;;;;;;;6.13;2.30;;;;;;;;;;5050895;28;20029;-71
2023/10/01 11:14:11;;;;;;;6.68;1.92;;;;;;;;;;5051138;28;20506;-71
2023/10/01 11:16:40;;;;;;;4.75;2.10;;;;;;;;;;5055712;28;20040;-71
2023/10/01 11:19:13;;;;;;;5.65;2.00;;;;;;;;;;5055653;28;20075;-71
2023/10/01 11:21:58;;;;;;;8.60;1.95;;;;;;;;;;5054448;28;20024;-71
2023/10/01 11:24:53;;;;;;;8.40;1.95;;;;;;;;;;5054307;28;20021;-72
2023/10/01 11:27:25;;;;;;;5.45;2.10;;;;;;;;;;5055507;28;20036;-71
2023/10/01 11:30:16;;;;;;;2.50;1.52;;;;;;;;;;5054176;28;20046;-71
2023/10/01 11:36:09;;;;;;;5.85;2.15;;;;;;;;;;5055679;28;20422;-71
2023/10/01 11:38:38;;;;;;;4.82;1.77;;;;;;;;;;5055230;28;20076;-71
2023/10/01 11:41:09;;;;;;;4.93;1.98;;;;;;;;;;5055175;28;20021;-70
2023/10/01 11:43:59;;;;;;;4.03;1.90;;;;;;;;;;5054773;28;20029;-71
2023/10/01 11:46:28;;;;;;;6.68;2.05;;;;;;;;;;5055171;28;20024;-71
2023/10/01 11:48:59;;;;;;;4.05;2.00;;;;;;;;;;5055429;28;20017;-71
2023/10/01 11:51:43;;;;;;;5.68;2.33;;;;;;;;;;5055148;28;20147;-71
2023/10/01 11:54:10;;;;;;;4.80;1.90;;;;;;;;;;5053855;28;20107;-71
2023/10/01 11:56:37;;;;;;;3.50;1.90;;;;;;;;;;5055021;28;20040;-71
2023/10/01 11:59:08;;;;;;;8.20;1.63;;;;;;;;;;5053689;28;20442;-71
2023/10/01 12:01:45;;;;;;;5.88;2.00;;;;;;;;;;5055218;28;20028;-71
2023/10/01 12:04:11;;;;;;;3.83;1.95;;;;;;;;;;5055374;28;20079;-71
2023/10/01 12:06:38;;;;;;;5.68;2.08;;;;;;;;;;5054986;28;20476;-72
2023/10/01 12:09:04;;;;;;;5.60;2.05;;;;;;;;;;5054601;28;20040;-71
2023/10/01 12:11:31;;;;;;;6.15;2.10;;;;;;;;;;5053340;28;20033;-71
2023/10/01 12:14:06;;;;;;;4.15;1.80;;;;;;;;;;5054685;28;20021;-71
2023/10/01 12:16:35;;;;;;;3.80;1.88;;;;;;;;;;5054627;28;20024;-71
2023/10/01 12:21:45;;;;;;;3.88;1.90;;;;;;;;;;5054529;28;20032;-71
2023/10/01 12:24:13;;;;;;;5.13;2.00;;;;;;;;;;5053218;28;20028;-71
2023/10/01 12:26:40;;;;;;;4.50;1.80;;;;;;;;;;5054212;28;20107;-71
2023/10/01 12:29:11;;;;;;;4.22;2.20;;;;;;;;;;5053330;28;20036;-71
2023/10/01 12:31:37;;;;;;;5.05;1.80;;;;;;;;;;5054326;28;20499;-71
2023/10/01 12:34:02;;;;;;;5.30;1.98;;;;;;;;;;5053038;28;20031;-72
2023/10/01 12:36:45;;;;;;;3.88;2.08;;;;;;;;;;5054411;28;20029;-71
2023/10/01 12:44:30;;;;;;;6.35;2.10;;;;;;;;;;5054698;28;20108;-72
2023/10/01 12:47:00;;;;;;;7.35;2.13;;;;;;;;;;5054407;28;20021;-71
2023/10/01 12:49:33;;;;;;;4.70;1.90;;;;;;;;;;5054049;28;20032;-72
2023/10/01 12:52:02;;;;;;;7.20;1.77;;;;;;;;;;5052556;28;20025;-71
2023/10/01 12:54:28;;;;;;;5.20;2.40;;;;;;;;;;5053885;28;20025;-72
2023/10/01 12:57:03;;;;;;;5.15;2.15;;;;;;;;;;5053883;28;20021;-71
2023/10/01 12:59:38;;;;;;;6.03;2.30;;;;;;;;;;5053956;28;20514;-71
2023/10/01 13:02:04;;;;;;;4.97;2.20;;;;;;;;;;5054467;28;20430;-71
2023/10/01 13:04:32;;;;;;;3.85;1.92;;;;;;;;;;5053658;28;20033;-72
2023/10/01 13:07:03;;;;;;;5.75;2.00;;;;;;;;;;5052354;28;20047;-71
2023/10/01 13:09:53;;;;;;;8.75;2.22;;;;;;;;;;5053743;28;20099;-71
2023/10/01 13:12:24;;;;;;;3.90;1.90;;;;;;;;;;5054119;28;20388;-72
2023/10/01 13:15:14;;;;;;;4.63;1.98;;;;;;;;;;5053912;28;20033;-71
2023/10/01 13:17:46;;;;;;;4.25;1.95;;;;;;;;;;5053551;28;20075;-73
2023/10/01 13:20:22;;;;;;;4.47;1.77;;;;;;;;;;5053896;28;20100;-71
2023/10/01 13:22:59;;;;;;;9.23;2.35;;;;;;;;;;5053429;28;20070;-71
2023/10/01 13:25:26;;;;;;;4.70;2.20;;;;;;;;;;5053628;28;20027;-71
2023/10/01 13:28:01;;;;;;;4.43;1.88;;;;;;;;;;5052790;28;20025;-71
2023/10/01 13:31:03;;;;;;;6.93;2.38;;;;;;;;;;5053271;28;20025;-71
2023/10/01 13:33:53;;;;;;;3.92;2.00;;;;;;;;;;5051980;28;20434;-71
2023/10/01 13:36:23;;;;;;;3.95;2.13;;;;;;;;;;5052961;28;20025;-71
2023/10/01 14:08:43;;;;;;;;;;;;;;;;;;5053306;28;20094;-71
2023/10/01 14:11:09;;;;;;;4.30;2.10;;;;;;;;;;5052773;28;19913;-71
2023/10/01 14:13:35;;;;;;;6.20;2.42;;;;;;;;;;5052179;28;20028;-71
2023/10/01 14:16:17;;;;;;;6.85;2.58;;;;;;;;;;5051678;28;20053;-71
2023/10/01 14:18:53;;;;;;;4.47;2.22;;;;;;;;;;5051343;28;20471;-71
2023/10/01 14:21:27;;;;;;;5.53;1.92;;;;;;;;;;5052644;28;20021;-71
2023/10/01 14:23:57;;;;;;;4.18;2.00;;;;;;;;;;5051375;28;20052;-71
2023/10/01 14:26:33;;;;;;;4.38;2.10;;;;;;;;;;5053532;28;20024;-70
2023/10/01 14:28:59;;;;;;;5.18;1.75;;;;;;;;;;5051377;28;20055;-72
2023/10/01 14:34:12;;;;;;;5.28;2.53;;;;;;;;;;5052707;28;20151;-71
2023/10/01 14:36:39;;;;;;;4.90;2.10;;;;;;;;;;5052729;28;20029;-71
2023/10/01 14:39:06;;;;;;;5.22;2.13;;;;;;;;;;5051060;28;20083;-70
2023/10/01 14:41:37;;;;;;;5.20;2.30;;;;;;;;;;5052617;28;20025;-70
2023/10/01 14:44:04;;;;;;;6.63;2.30;;;;;;;;;;5052069;28;20372;-71
2023/10/01 14:46:33;;;;;;;7.32;2.03;;;;;;;;;;5051183;28;20124;-71
2023/10/01 14:49:04;;;;;;;5.50;2.20;;;;;;;;;;5052653;28;20025;-71
2023/10/01 14:51:34;;;;;;;8.20;2.33;;;;;;;;;;5056090;28;20044;-70
2023/10/01 14:54:01;;;;;;;5.05;2.30;;;;;;;;;;5055876;28;20037;-71
2023/10/01 14:56:30;;;;;;;6.90;2.10;;;;;;;;;;5056045;28;20029;-71
2023/10/01 14:58:57;;;;;;;5.10;2.45;;;;;;;;;;5055013;28;20032;-71
2023/10/01 15:01:22;;;;;;;7.15;2.38;;;;;;;;;;5056167;28;20434;-72
2023/10/01 15:03:53;;;;;;;6.67;2.20;;;;;;;;;;5055831;28;20025;-70
2023/10/01 15:06:22;;;;;;;5.30;2.33;;;;;;;;;;5056149;28;20246;-71
2023/10/01 15:08:48;;;;;;;6.70;2.92;;;;;;;;;;5055746;28;20075;-70
2023/10/01 15:11:14;;;;;;;4.70;2.38;;;;;;;;;;5054245;28;20021;-71
2023/10/01 15:13:41;;;;;;;4.50;2.08;;;;;;;;;;5054609;28;20052;-70
2023/10/01 15:16:12;;;;;;;4.30;2.38;;;;;;;;;;5055440;28;20100;-70
2023/10/01 15:18:40;;;;;;;4.47;2.40;;;;;;;;;;5054100;28;20121;-72
2023/10/01 15:21:23;;;;;;;8.65;3.53;;;;;;;;;;5055487;28;20102;-71
2023/10/01 15:23:51;;;;;;;5.53;2.93;;;;;;;;;;5055895;28;20399;-71
2023/10/01 15:26:18;;;;;;;6.45;2.42;;;;;;;;;;5054679;28;20749;-72
2023/10/01 15:28:50;;;;;;;6.68;2.78;;;;;;;;;;5054178;28;20021;-71
2023/10/01 15:31:32;;;;;;;9.52;2.50;;;;;;;;;;5055593;28;20032;-71
2023/10/01 15:34:04;;;;;;;4.97;2.10;;;;;;;;;;5055387;28;20419;-71
2023/10/01 15:36:46;;;;;;;13.40;2.65;;;;;;;;;;5055264;28;20032;-71
2023/10/01 15:44:43;;;;;;;6.93;2.35;;;;;;;;;;5055675;28;20082;-71
2023/10/01 15:47:31;;;;;;;9.73;2.53;;;;;;;;;;5055091;28;20115;-72
2023/10/01 15:50:04;;;;;;;6.88;2.33;;;;;;;;;;5055003;28;20025;-71
2023/10/01 15:52:37;;;;;;;5.88;2.40;;;;;;;;;;5054967;28;20467;-71
2023/10/01 15:55:06;;;;;;;5.90;2.63;;;;;;;;;;5055243;28;20519;-71
2023/10/01 15:57:32;;;;;;;6.05;2.78;;;;;;;;;;5055270;28;20061;-71
2023/10/01 16:00:00;;;;;;;5.65;2.55;;;;;;;;;;5054616;28;20036;-70
2023/10/01 16:02:25;;;;;;;5.22;2.35;;;;;;;;;;5055053;28;20036;-70
2023/10/01 16:04:59;;;;;;;5.47;2.77;;;;;;;;;;5053536;28;20021;-71
2023/10/01 16:07:28;;;;;;;6.13;2.45;;;;;;;;;;5055048;28;20265;-70
2023/10/01 16:09:53;;;;;;;6.78;2.60;;;;;;;;;;5054582;28;20032;-71
2023/10/01 16:12:18;;;;;;;8.55;2.92;;;;;;;;;;5053260;28;20423;-71
2023/10/01 16:14:44;;;;;;;6.90;2.95;;;;;;;;;;5054580;28;20472;-71
2023/10/01 16:17:18;;;;;;;8.02;2.70;;;;;;;;;;5054526;28;20057;-70
2023/10/01 16:19:55;;;;;;;4.93;2.70;;;;;;;;;;5054647;28;20392;-71
2023/10/01 16:22:27;;;;;;;6.07;2.67;;;;;;;;;;5054675;28;20025;-72
2023/10/01 16:24:55;;;;;;;5.32;2.90;;;;;;;;;;5053301;28;20094;-71
2023/10/01 16:27:26;;;;;;;5.32;2.63;;;;;;;;;;5054459;28;20033;-70
2023/10/01 16:30:19;;;;;;;7.43;2.80;;;;;;;;;;5054472;28;20021;-71